aviador You're here:

CYHU Decoded Metar

MONTREAL in QC, CANADA
Report Time2017-06-24 23:00:00
UTC Time2017-06-25 00:03:37
Flight Rules vfr VFR
Wind320° at 18 Gusting to 25 kt
W.Decomp.*RWY 28: 10.1 kt HW 14.9 kt RCW
RWY 06: 1.9 kt HW 17.9 kt LCW
W.Rank320° ranks 25
Current wind is above 320° avg. (8.2)
Visibility9999 m
Phenomena:N/A
Clouds:N/A
Expected CloudBase > 4,400 ft AGL from Temp-Dew spread
CeilingNone
Temp23°C (ISA +8)
Dew Point12°C (50% RH)
AAT17.1°C
QNH1004 hPa
Density Alt1,532 ft
Elevation89 ft
Report Wrong Elevation
Raw Report
CYHU 242300Z AUTO 32018G25KT 9SM CLR 23/12 A2966 RMK SLP046
DENSITY ALT 1300FT=

Extra information for CYHU:More info

Metar Taf Metar & Taf Last 4 Metars F.Rules Stats Wind Profile Meteogram Temp Stats Airport Information Weather charts Add Link Nearby VenuesMetar ALERT Operation Metar Decoded Social comments